Time;durP1;ratioP1;P1;durP2;ratioP2;P2;SDS_P1;SDS_P2;PMS_P1;PMS_P2;Temp;Humidity;BMP_temperature;BMP_pressure;BME280_temperature;BME280_humidity;BME280_pressure;Samples;Min_cycle;Max_cycle;Signal;HPM_P1;HPM_P2
2022/01/17 00:00:16;;;;;;;19.67;16.33;;;7.00;72.10;;;;;;5039548;28;20064;-45
2022/01/17 00:02:42;;;;;;;16.52;14.65;;;7.00;72.00;;;;;;5039368;28;20469;-47
2022/01/17 00:05:09;;;;;;;17.27;14.77;;;6.90;72.20;;;;;;5039270;28;20025;-45
2022/01/17 00:07:36;;;;;;;17.65;14.82;;;6.90;72.40;;;;;;5039075;28;20025;-49
2022/01/17 00:10:03;;;;;;;17.90;14.32;;;6.90;72.60;;;;;;5038926;28;20026;-47
2022/01/17 00:12:32;;;;;;;17.83;14.75;;;6.90;72.10;;;;;;5038880;28;20068;-46
2022/01/17 00:14:57;;;;;;;16.20;13.48;;;6.90;72.80;;;;;;5038797;28;20026;-47
2022/01/17 00:17:33;;;;;;;15.88;12.75;;;6.90;72.60;;;;;;5038813;28;20033;-47
2022/01/17 00:20:09;;;;;;;19.58;14.98;;;6.90;72.60;;;;;;5038658;28;20105;-45
2022/01/17 00:22:35;;;;;;;19.73;15.35;;;7.00;72.20;;;;;;5038484;28;20029;-46
2022/01/17 00:25:01;;;;;;;21.45;16.30;;;7.00;72.00;;;;;;5038690;28;20030;-48
2022/01/17 00:27:27;;;;;;;17.73;15.68;;;7.00;71.90;;;;;;5038886;28;20034;-46
2022/01/17 00:29:53;;;;;;;18.95;14.85;;;7.00;72.00;;;;;;5038610;28;20024;-46
2022/01/17 00:32:19;;;;;;;17.08;14.20;;;7.00;71.90;;;;;;5038352;28;20481;-46
2022/01/17 00:34:46;;;;;;;15.38;13.00;;;7.00;71.60;;;;;;5038681;28;20032;-46
2022/01/17 00:37:12;;;;;;;16.48;13.45;;;7.00;72.90;;;;;;5038250;28;20503;-48
2022/01/17 00:39:38;;;;;;;19.13;14.65;;;7.00;74.20;;;;;;5038373;28;20022;-46
2022/01/17 00:42:04;;;;;;;20.98;16.42;;;7.00;74.30;;;;;;5038332;28;20075;-45
2022/01/17 00:44:30;;;;;;;18.38;15.45;;;7.00;73.20;;;;;;5038818;28;20477;-47
2022/01/17 00:46:55;;;;;;;17.15;14.82;;;7.10;73.00;;;;;;5038435;28;20068;-48
2022/01/17 00:49:21;;;;;;;17.38;13.95;;;7.20;73.30;;;;;;5038328;28;20540;-46
2022/01/17 00:51:47;;;;;;;19.40;15.05;;;7.20;74.60;;;;;;5038207;28;20040;-46
2022/01/17 00:54:13;;;;;;;17.40;14.50;;;7.20;72.80;;;;;;5037720;28;20053;-48
2022/01/17 00:56:39;;;;;;;17.98;13.32;;;7.20;72.80;;;;;;5038132;28;20556;-47
2022/01/17 00:59:05;;;;;;;20.60;15.80;;;7.30;72.80;;;;;;5038599;28;20040;-53
2022/01/17 01:01:31;;;;;;;17.45;14.13;;;7.30;71.70;;;;;;5038267;28;20499;-50
2022/01/17 01:03:57;;;;;;;15.57;13.23;;;7.20;71.70;;;;;;5037864;28;20570;-53
2022/01/17 01:06:23;;;;;;;16.73;12.75;;;7.10;71.90;;;;;;5037913;28;20064;-49
2022/01/17 01:08:49;;;;;;;15.80;12.93;;;7.10;72.70;;;;;;5038169;28;20096;-50
2022/01/17 01:11:14;;;;;;;17.63;13.95;;;6.90;74.20;;;;;;5038097;28;20060;-50
2022/01/17 01:13:41;;;;;;;17.52;14.00;;;6.80;75.00;;;;;;5037884;28;20013;-51
2022/01/17 01:16:22;;;;;;;18.15;14.10;;;6.90;73.20;;;;;;5037846;28;20033;-53
2022/01/17 01:29:21;;;;;;;14.77;12.40;;;6.70;72.90;;;;;;5037769;28;20119;-51
2022/01/17 01:31:52;;;;;;;16.50;12.23;;;6.60;72.30;;;;;;5037835;28;20025;-51
2022/01/17 01:34:25;;;;;;;15.35;12.60;;;6.50;72.70;;;;;;5037864;28;20029;-54
2022/01/17 01:36:51;;;;;;;16.40;13.10;;;6.50;72.80;;;;;;5037344;28;20038;-51
2022/01/17 01:39:22;;;;;;;14.45;11.15;;;6.50;72.90;;;;;;5037559;28;20057;-52
2022/01/17 01:41:48;;;;;;;14.95;12.18;;;6.40;72.80;;;;;;5037519;28;20116;-48
2022/01/17 01:44:17;;;;;;;14.57;11.25;;;6.40;73.20;;;;;;5037964;28;20053;-50
2022/01/17 01:46:44;;;;;;;13.70;11.00;;;6.30;72.60;;;;;;5037638;28;20032;-51
2022/01/17 01:49:11;;;;;;;14.02;11.68;;;6.30;72.70;;;;;;5037494;28;20437;-50
2022/01/17 01:51:36;;;;;;;15.57;11.93;;;6.30;72.20;;;;;;5037636;28;20026;-51
2022/01/17 01:54:03;;;;;;;17.45;11.75;;;6.30;72.20;;;;;;5037684;28;20101;-53
2022/01/17 01:56:29;;;;;;;16.75;11.70;;;6.20;72.40;;;;;;5037840;28;20056;-51
2022/01/17 01:58:56;;;;;;;13.50;11.88;;;6.10;72.70;;;;;;5037438;28;20378;-51
2022/01/17 02:01:22;;;;;;;13.82;10.75;;;6.20;72.60;;;;;;5037594;28;20076;-50
2022/01/17 02:03:48;;;;;;;14.27;11.07;;;6.10;72.50;;;;;;5037379;28;20025;-50
2022/01/17 02:06:13;;;;;;;16.48;12.20;;;6.10;72.70;;;;;;5039369;28;20121;-52
2022/01/17 02:08:39;;;;;;;14.13;11.80;;;6.10;72.40;;;;;;5041756;28;20076;-51
2022/01/17 02:11:10;;;;;;;14.25;11.15;;;6.10;71.90;;;;;;5041099;28;20079;-52
2022/01/17 02:13:39;;;;;;;14.00;11.43;;;6.00;72.10;;;;;;5040967;28;20021;-50
2022/01/17 02:16:10;;;;;;;14.18;10.75;;;5.90;71.80;;;;;;5041402;28;20108;-49
2022/01/17 02:18:35;;;;;;;13.98;10.52;;;5.80;72.50;;;;;;5040820;28;20091;-52
2022/01/17 02:23:35;;;;;;;14.67;11.60;;;5.80;72.50;;;;;;5040832;28;20022;-51
2022/01/17 02:26:01;;;;;;;15.30;12.75;;;5.80;73.50;;;;;;5040881;28;20025;-51
2022/01/17 02:28:27;;;;;;;16.95;13.55;;;5.80;73.60;;;;;;5040912;28;20032;-51
2022/01/17 02:30:53;;;;;;;16.63;12.70;;;5.90;72.30;;;;;;5040835;28;20032;-53
2022/01/17 02:33:19;;;;;;;13.98;11.55;;;5.90;72.50;;;;;;5040822;28;20393;-50
2022/01/17 02:35:49;;;;;;;17.17;12.90;;;5.90;73.20;;;;;;5040607;28;20084;-50
2022/01/17 02:38:15;;;;;;;16.50;12.38;;;5.80;72.90;;;;;;5040982;28;20022;-50
2022/01/17 02:40:41;;;;;;;17.35;13.18;;;5.90;72.70;;;;;;5040743;28;20041;-52
2022/01/17 02:43:07;;;;;;;14.55;12.25;;;5.90;72.30;;;;;;5040614;28;20022;-51
2022/01/17 02:45:38;;;;;;;14.45;10.07;;;5.90;71.70;;;;;;5040906;28;20017;-50
2022/01/17 02:48:07;;;;;;;14.27;10.98;;;5.80;73.10;;;;;;5040478;28;20037;-51
2022/01/17 02:50:35;;;;;;;17.08;13.82;;;5.80;72.60;;;;;;5040729;28;20032;-53
2022/01/17 02:53:03;;;;;;;17.27;13.60;;;5.80;73.00;;;;;;5040931;28;20036;-51
2022/01/17 02:55:29;;;;;;;18.70;14.52;;;5.70;73.70;;;;;;5040959;28;20106;-50
2022/01/17 02:57:56;;;;;;;19.65;14.93;;;5.70;74.00;;;;;;5040454;28;20176;-52
2022/01/17 03:00:22;;;;;;;19.85;15.43;;;5.70;73.90;;;;;;5040526;28;20052;-50
2022/01/17 03:02:49;;;;;;;18.23;13.73;;;5.80;73.60;;;;;;5038838;28;20485;-49
2022/01/17 03:05:19;;;;;;;20.33;16.05;;;5.70;74.50;;;;;;5040401;28;20071;-53
2022/01/17 03:07:47;;;;;;;23.05;17.15;;;5.80;73.20;;;;;;5040348;28;20104;-49
2022/01/17 03:10:35;;;;;;;18.25;12.98;;;5.80;72.50;;;;;;5040171;28;20477;-51
2022/01/17 03:13:10;;;;;;;17.10;13.60;;;5.80;73.10;;;;;;5040289;28;20028;-54
2022/01/17 03:15:36;;;;;;;18.02;13.93;;;5.80;73.90;;;;;;5040558;28;20029;-50
2022/01/17 03:18:03;;;;;;;18.90;14.15;;;5.80;74.40;;;;;;5039207;28;20440;-52
2022/01/17 03:20:29;;;;;;;18.77;14.07;;;5.90;74.90;;;;;;5039537;28;20049;-49
2022/01/17 03:22:55;;;;;;;19.63;15.27;;;5.90;74.50;;;;;;5039904;28;20084;-52
2022/01/17 03:25:21;;;;;;;17.80;13.88;;;6.00;74.70;;;;;;5039923;28;20036;-52
2022/01/17 03:27:47;;;;;;;18.85;14.10;;;6.10;75.10;;;;;;5039817;28;20029;-53
2022/01/17 03:30:13;;;;;;;18.27;13.75;;;6.20;74.40;;;;;;5039757;28;20041;-53
2022/01/17 03:32:39;;;;;;;17.27;13.60;;;6.30;74.80;;;;;;5040042;28;20077;-49
2022/01/17 03:35:06;;;;;;;17.63;12.02;;;6.30;76.10;;;;;;5039697;28;20018;-50
2022/01/17 03:37:32;;;;;;;13.63;10.43;;;6.40;76.70;;;;;;5039685;28;20033;-49
2022/01/17 03:39:58;;;;;;;14.68;11.13;;;6.50;75.90;;;;;;5039844;28;20044;-51
2022/01/17 03:42:24;;;;;;;14.15;10.55;;;6.60;77.50;;;;;;5039348;28;20088;-53
2022/01/17 03:44:51;;;;;;;16.90;12.00;;;6.70;76.40;;;;;;5039409;28;20026;-51
2022/01/17 03:47:17;;;;;;;17.38;12.95;;;6.80;75.70;;;;;;5039398;28;20052;-51
2022/01/17 03:49:43;;;;;;;15.73;11.65;;;6.80;76.70;;;;;;5039308;28;20025;-53
2022/01/17 03:52:09;;;;;;;14.27;11.15;;;6.90;75.20;;;;;;5039642;28;20111;-50
2022/01/17 03:54:35;;;;;;;14.40;11.02;;;6.90;76.30;;;;;;5039300;28;20014;-50
2022/01/17 03:57:01;;;;;;;15.60;11.75;;;7.00;76.10;;;;;;5039508;28;20030;-54
2022/01/17 03:59:27;;;;;;;15.48;10.55;;;7.00;76.60;;;;;;5039417;28;20037;-53
2022/01/17 04:01:53;;;;;;;13.40;10.13;;;7.10;76.20;;;;;;5039195;28;20445;-54
2022/01/17 04:04:19;;;;;;;14.15;10.55;;;7.10;75.60;;;;;;5039471;28;20025;-49
2022/01/17 04:06:45;;;;;;;13.40;9.88;;;7.10;75.10;;;;;;5038981;28;20025;-51
2022/01/17 04:09:11;;;;;;;15.02;10.60;;;7.20;76.50;;;;;;5039032;28;20025;-51
2022/01/17 04:11:37;;;;;;;12.57;9.68;;;7.20;76.00;;;;;;5039205;28;20491;-49
2022/01/17 04:14:06;;;;;;;14.70;10.55;;;7.30;76.60;;;;;;5039146;28;20017;-51
2022/01/17 04:16:33;;;;;;;12.40;9.73;;;7.30;76.80;;;;;;5038905;28;20047;-54
2022/01/17 04:18:59;;;;;;;15.30;10.00;;;7.30;76.80;;;;;;5038866;28;20110;-52
2022/01/17 04:21:31;;;;;;;14.25;10.27;;;7.40;76.30;;;;;;5038695;28;20061;-53
2022/01/17 04:23:57;;;;;;;14.50;9.80;;;7.50;76.30;;;;;;5039234;28;20018;-52
2022/01/17 04:26:23;;;;;;;14.25;10.70;;;7.50;77.40;;;;;;5037215;28;20039;-49
2022/01/17 04:28:49;;;;;;;16.02;10.95;;;7.50;75.40;;;;;;5037817;28;20009;-52
2022/01/17 04:31:15;;;;;;;15.40;11.70;;;7.60;75.30;;;;;;5038539;28;20036;-50
2022/01/17 04:33:40;;;;;;;15.45;10.38;;;7.60;75.90;;;;;;5038990;28;20014;-51
2022/01/17 04:36:08;;;;;;;13.20;9.75;;;7.60;76.90;;;;;;5038744;28;20033;-54
2022/01/17 04:38:34;;;;;;;17.15;9.68;;;7.70;76.50;;;;;;5038697;28;20075;-50
2022/01/17 04:41:03;;;;;;;11.80;8.43;;;7.70;77.00;;;;;;5038432;28;20120;-50
2022/01/17 04:46:02;;;;;;;13.13;8.82;;;7.80;75.50;;;;;;5038757;28;20037;-50
2022/01/17 04:48:27;;;;;;;12.07;7.82;;;7.90;76.10;;;;;;5038507;28;20028;-50
2022/01/17 04:50:54;;;;;;;11.45;7.15;;;7.90;76.50;;;;;;5038486;28;20108;-50
2022/01/17 04:53:21;;;;;;;11.95;7.93;;;7.90;77.50;;;;;;5038287;28;20025;-49
2022/01/17 04:55:48;;;;;;;11.90;7.53;;;8.00;77.90;;;;;;5038116;28;20075;-51
2022/01/17 04:58:14;;;;;;;12.07;7.88;;;8.00;76.50;;;;;;5038177;28;20473;-52
2022/01/17 05:00:46;;;;;;;12.15;7.47;;;8.10;75.80;;;;;;5038391;28;20072;-52
2022/01/17 05:03:16;;;;;;;12.82;8.23;;;8.10;76.20;;;;;;5038121;28;20025;-50
2022/01/17 05:05:42;;;;;;;11.85;7.45;;;8.10;75.70;;;;;;5038081;28;20048;-51
2022/01/17 05:08:08;;;;;;;11.85;7.43;;;8.20;75.90;;;;;;5038123;28;20475;-53
2022/01/17 05:10:34;;;;;;;11.57;7.45;;;8.20;77.50;;;;;;5038339;28;20030;-54
2022/01/17 05:13:00;;;;;;;12.93;7.95;;;8.20;76.40;;;;;;5038512;28;20497;-50
2022/01/17 05:15:31;;;;;;;11.75;7.63;;;8.20;76.10;;;;;;5037674;28;20426;-55
2022/01/17 05:20:37;;;;;;;12.38;7.95;;;8.30;76.70;;;;;;5037514;28;20390;-54
2022/01/17 05:23:03;;;;;;;11.90;8.05;;;8.30;76.00;;;;;;5037463;28;20036;-52
2022/01/17 05:25:28;;;;;;;12.88;8.60;;;8.30;75.80;;;;;;5037471;28;20022;-51
2022/01/17 05:27:54;;;;;;;13.65;8.10;;;8.30;75.80;;;;;;5037348;28;20048;-54
2022/01/17 05:30:22;;;;;;;13.23;8.48;;;8.30;75.90;;;;;;5037646;28;20496;-52
2022/01/17 05:32:50;;;;;;;12.57;8.48;;;8.30;75.30;;;;;;5037274;28;20148;-53
2022/01/17 05:35:16;;;;;;;12.98;8.40;;;8.30;75.20;;;;;;5037289;28;20028;-55
2022/01/17 05:37:43;;;;;;;12.85;8.25;;;8.30;75.70;;;;;;5037530;28;20116;-53
2022/01/17 05:40:11;;;;;;;14.40;9.15;;;8.30;75.60;;;;;;5036928;28;20051;-51
2022/01/17 05:42:37;;;;;;;12.85;8.57;;;8.30;75.90;;;;;;5037263;28;20021;-53
2022/01/17 05:45:05;;;;;;;12.98;8.05;;;8.40;75.60;;;;;;5035848;28;20025;-50
2022/01/17 05:47:31;;;;;;;14.55;8.43;;;8.40;76.00;;;;;;5037271;28;20420;-53
2022/01/17 05:49:59;;;;;;;15.10;8.40;;;8.40;75.60;;;;;;5037681;28;20381;-53
2022/01/17 05:52:24;;;;;;;13.18;8.52;;;8.40;77.00;;;;;;5037525;28;20014;-52
2022/01/17 05:54:52;;;;;;;13.68;9.00;;;8.40;75.50;;;;;;5037167;28;20052;-54
2022/01/17 05:57:18;;;;;;;13.60;8.45;;;8.40;76.00;;;;;;5037039;28;20060;-53
2022/01/17 05:59:44;;;;;;;13.73;8.57;;;8.40;76.90;;;;;;5036709;28;20068;-53
2022/01/17 06:02:10;;;;;;;13.88;8.13;;;8.40;76.40;;;;;;5037171;28;20090;-52
2022/01/17 06:04:36;;;;;;;13.73;8.68;;;8.40;76.00;;;;;;5037099;28;20072;-52
2022/01/17 06:07:05;;;;;;;14.93;8.80;;;8.40;77.20;;;;;;5037230;28;20029;-50
2022/01/17 06:09:31;;;;;;;13.23;8.52;;;8.40;76.20;;;;;;5037033;28;20473;-53
2022/01/17 06:11:57;;;;;;;13.68;8.43;;;8.40;76.40;;;;;;5037159;28;20454;-52
2022/01/17 06:14:23;;;;;;;14.90;8.63;;;8.40;77.80;;;;;;5037155;28;20025;-51
2022/01/17 06:16:49;;;;;;;15.82;8.15;;;8.40;77.40;;;;;;5036821;28;20555;-49
2022/01/17 06:19:15;;;;;;;13.90;9.02;;;8.40;77.30;;;;;;5037186;28;20572;-53
2022/01/17 06:21:40;;;;;;;13.88;8.27;;;8.40;76.80;;;;;;5036909;28;20140;-53
2022/01/17 06:24:09;;;;;;;12.73;8.10;;;8.40;77.50;;;;;;5036943;28;20032;-53
2022/01/17 06:26:36;;;;;;;29.77;9.63;;;8.40;80.20;;;;;;5036672;28;20112;-51
2022/01/17 06:29:03;;;;;;;14.95;9.10;;;8.50;77.70;;;;;;5036844;28;20175;-55
2022/01/17 06:31:29;;;;;;;12.77;7.78;;;8.50;76.90;;;;;;5036897;28;20025;-50
2022/01/17 06:33:56;;;;;;;12.02;7.65;;;8.50;78.10;;;;;;5036919;28;20029;-54
2022/01/17 06:36:22;;;;;;;12.55;8.32;;;8.50;78.70;;;;;;5037133;28;20053;-53
2022/01/17 06:38:49;;;;;;;14.52;7.85;;;8.50;79.00;;;;;;5037002;28;20029;-51
2022/01/17 06:41:17;;;;;;;12.95;8.15;;;8.50;78.50;;;;;;5036809;28;20037;-52
2022/01/17 06:43:43;;;;;;;14.07;8.68;;;8.50;77.60;;;;;;5036740;28;20056;-55
2022/01/17 06:46:09;;;;;;;13.25;7.45;;;8.50;78.40;;;;;;5036680;28;20029;-52
2022/01/17 06:48:34;;;;;;;13.35;8.20;;;8.50;79.90;;;;;;5036674;28;20021;-53
2022/01/17 06:51:00;;;;;;;12.00;7.43;;;8.50;78.30;;;;;;5036708;28;20021;-55
2022/01/17 06:53:27;;;;;;;15.48;9.43;;;8.50;77.80;;;;;;5039057;28;20029;-52
2022/01/17 06:55:54;;;;;;;13.90;7.78;;;8.50;77.60;;;;;;5040026;28;20466;-49
2022/01/17 06:58:20;;;;;;;13.32;7.97;;;8.50;77.30;;;;;;5040083;28;20018;-52
2022/01/17 07:00:46;;;;;;;14.27;8.50;;;8.50;76.60;;;;;;5039759;28;20485;-54
2022/01/17 07:03:12;;;;;;;12.50;7.68;;;8.50;78.00;;;;;;5040151;28;20061;-55
2022/01/17 07:05:38;;;;;;;13.30;8.15;;;8.50;79.50;;;;;;5040535;28;20417;-52
2022/01/17 07:08:04;;;;;;;11.52;7.25;;;8.60;78.20;;;;;;5040255;28;20057;-51
2022/01/17 07:10:30;;;;;;;11.27;7.18;;;8.50;77.70;;;;;;5040120;28;20021;-51
2022/01/17 07:12:56;;;;;;;12.00;7.78;;;8.50;77.50;;;;;;5040167;28;20028;-51
2022/01/17 07:15:22;;;;;;;12.80;7.82;;;8.50;77.20;;;;;;5038579;28;20025;-49
2022/01/17 07:17:47;;;;;;;13.65;8.55;;;8.50;77.20;;;;;;5040043;28;20029;-51
2022/01/17 07:20:13;;;;;;;13.40;8.05;;;8.50;77.20;;;;;;5039626;28;20050;-50
2022/01/17 07:22:39;;;;;;;14.10;9.18;;;8.50;77.10;;;;;;5039907;28;20017;-51
2022/01/17 07:25:06;;;;;;;14.48;8.38;;;8.50;77.20;;;;;;5039630;28;20033;-52
2022/01/17 07:27:32;;;;;;;11.32;7.75;;;8.50;77.10;;;;;;5039696;28;20076;-54
2022/01/17 07:29:57;;;;;;;32.08;10.38;;;8.50;77.70;;;;;;5039471;28;20017;-52
2022/01/17 07:32:24;;;;;;;30.42;10.05;;;8.50;77.70;;;;;;5039376;28;20473;-48
2022/01/17 07:34:52;;;;;;;31.73;10.48;;;8.40;77.20;;;;;;5039401;28;20030;-55
2022/01/17 07:37:18;;;;;;;13.10;8.20;;;8.40;76.90;;;;;;5039532;28;20068;-52
2022/01/17 07:39:44;;;;;;;12.23;7.68;;;8.30;77.20;;;;;;5039832;28;20021;-53
2022/01/17 07:42:10;;;;;;;12.40;7.28;;;8.30;78.40;;;;;;5039278;28;20021;-52
2022/01/17 07:44:39;;;;;;;11.20;7.25;;;8.30;77.70;;;;;;5039191;28;20033;-52
2022/01/17 07:47:06;;;;;;;11.20;6.97;;;8.30;78.10;;;;;;5039182;28;20096;-50
2022/01/17 07:49:33;;;;;;;11.07;6.95;;;8.30;78.40;;;;;;5039420;28;20104;-53
2022/01/17 07:52:04;;;;;;;10.65;6.55;;;8.30;77.80;;;;;;5039206;28;20466;-53
2022/01/17 07:54:33;;;;;;;9.05;5.78;;;8.30;78.00;;;;;;5039332;28;20408;-51
2022/01/17 07:57:01;;;;;;;10.60;6.07;;;8.30;77.80;;;;;;5038954;28;20397;-53
2022/01/17 07:59:27;;;;;;;13.57;6.93;;;8.30;77.60;;;;;;5039180;28;20083;-51
2022/01/17 08:01:53;;;;;;;12.82;6.65;;;8.30;76.60;;;;;;5038262;28;20033;-52
2022/01/17 08:04:19;;;;;;;13.02;6.75;;;8.30;77.20;;;;;;5038650;28;20079;-54
2022/01/17 08:06:46;;;;;;;10.25;6.00;;;8.30;77.10;;;;;;5037957;28;20108;-52
2022/01/17 08:09:19;;;;;;;10.43;5.45;;;8.20;78.60;;;;;;5037006;28;20127;-48
2022/01/17 08:11:46;;;;;;;9.80;5.40;;;8.20;78.90;;;;;;5037740;28;20037;-52
2022/01/17 08:14:12;;;;;;;9.38;5.32;;;8.20;78.00;;;;;;5037410;28;20034;-50
2022/01/17 08:16:38;;;;;;;8.88;5.50;;;8.20;78.60;;;;;;5037328;28;20053;-52
2022/01/17 08:19:04;;;;;;;10.82;6.32;;;8.20;78.40;;;;;;5037380;28;20445;-50
2022/01/17 08:21:29;;;;;;;10.63;6.78;;;8.20;78.70;;;;;;5037204;28;20042;-54
2022/01/17 08:23:57;;;;;;;18.35;8.50;;;8.20;78.90;;;;;;5038512;28;20053;-53
2022/01/17 08:26:23;;;;;;;11.70;7.00;;;8.20;77.50;;;;;;5038180;28;20021;-49
2022/01/17 08:28:49;;;;;;;12.27;6.70;;;8.20;77.90;;;;;;5038522;28;20032;-54
2022/01/17 08:31:15;;;;;;;10.55;6.40;;;8.30;77.20;;;;;;5038322;28;20034;-52
2022/01/17 08:33:40;;;;;;;10.68;6.15;;;8.30;77.20;;;;;;5038183;28;20033;-53
2022/01/17 08:36:07;;;;;;;12.35;7.60;;;8.30;77.70;;;;;;5038336;28;20022;-53
2022/01/17 08:38:35;;;;;;;13.73;7.03;;;8.30;77.10;;;;;;5037301;28;20175;-53
2022/01/17 08:41:01;;;;;;;11.05;6.90;;;8.30;77.40;;;;;;5037555;28;20401;-53
2022/01/17 08:43:27;;;;;;;12.30;7.43;;;8.30;78.60;;;;;;5037619;28;20017;-53
2022/01/17 08:45:55;;;;;;;14.30;8.82;;;8.30;78.40;;;;;;5037805;28;20056;-51
2022/01/17 08:48:21;;;;;;;13.18;7.65;;;8.30;77.20;;;;;;5037562;28;20432;-55
2022/01/17 08:50:48;;;;;;;15.40;8.52;;;8.40;77.50;;;;;;5038162;28;20382;-54
2022/01/17 08:53:15;;;;;;;14.77;8.45;;;8.40;77.10;;;;;;5038410;28;20106;-51
2022/01/17 08:55:45;;;;;;;14.82;8.38;;;8.40;78.50;;;;;;5037763;28;20053;-56
2022/01/17 08:58:13;;;;;;;13.13;8.43;;;8.40;78.50;;;;;;5038016;28;20029;-54
2022/01/17 09:00:39;;;;;;;14.48;8.70;;;8.50;78.90;;;;;;5037797;28;20025;-52
2022/01/17 09:03:05;;;;;;;23.17;10.10;;;8.50;78.30;;;;;;5038095;28;20022;-51
2022/01/17 09:05:32;;;;;;;14.38;9.27;;;8.50;78.50;;;;;;5037809;28;20025;-52
2022/01/17 09:07:59;;;;;;;15.98;9.65;;;8.60;78.30;;;;;;5037598;28;20503;-51
2022/01/17 09:10:25;;;;;;;15.75;9.52;;;8.60;77.50;;;;;;5038111;28;20028;-55
2022/01/17 09:12:52;;;;;;;14.50;9.82;;;8.60;78.60;;;;;;5038059;28;20405;-55
2022/01/17 09:15:19;;;;;;;14.60;10.07;;;8.60;78.00;;;;;;5037043;28;20158;-56
2022/01/17 09:17:45;;;;;;;14.10;9.27;;;8.60;77.60;;;;;;5037405;28;20103;-54
2022/01/17 09:20:11;;;;;;;16.42;9.43;;;8.70;77.80;;;;;;5037209;28;20045;-56
2022/01/17 09:22:37;;;;;;;13.43;8.10;;;8.70;78.30;;;;;;5037646;28;20032;-52
2022/01/17 09:25:07;;;;;;;14.48;8.32;;;8.70;78.20;;;;;;5037340;28;20037;-53
2022/01/17 09:27:34;;;;;;;14.95;9.20;;;8.70;77.60;;;;;;5037423;28;20465;-56
2022/01/17 09:30:02;;;;;;;15.20;9.32;;;8.70;77.60;;;;;;5037354;28;20484;-54
2022/01/17 09:32:28;;;;;;;13.82;9.18;;;8.80;77.60;;;;;;5037472;28;20021;-53
2022/01/17 09:34:53;;;;;;;12.63;8.20;;;8.80;77.40;;;;;;5037208;28;20499;-54
2022/01/17 09:37:19;;;;;;;13.20;8.30;;;8.80;78.40;;;;;;5037244;28;20102;-54
2022/01/17 09:39:45;;;;;;;16.23;9.50;;;8.80;78.10;;;;;;5037205;28;20030;-54
2022/01/17 09:42:12;;;;;;;12.90;8.70;;;8.90;77.50;;;;;;5037231;28;20038;-54
2022/01/17 09:44:38;;;;;;;17.98;9.77;;;8.90;78.40;;;;;;5037173;28;20075;-55
2022/01/17 09:47:06;;;;;;;14.50;9.57;;;9.00;77.30;;;;;;5037041;28;20116;-53
2022/01/17 09:49:37;;;;;;;16.17;8.80;;;9.00;78.30;;;;;;5037305;28;20022;-52
2022/01/17 09:52:14;;;;;;;14.50;9.38;;;9.00;78.90;;;;;;5036946;28;20029;-51
2022/01/17 09:54:42;;;;;;;15.38;8.95;;;9.00;77.40;;;;;;5036865;28;20082;-55
2022/01/17 09:57:11;;;;;;;14.63;9.38;;;9.00;77.80;;;;;;5037176;28;20033;-55
2022/01/17 09:59:40;;;;;;;17.70;9.77;;;9.10;78.70;;;;;;5037021;28;20021;-56
2022/01/17 10:02:08;;;;;;;15.20;8.88;;;9.10;77.30;;;;;;5037172;28;20053;-54
2022/01/17 10:04:35;;;;;;;16.50;8.75;;;9.10;77.20;;;;;;5036933;28;20056;-54
2022/01/17 10:07:04;;;;;;;14.45;8.88;;;9.10;77.80;;;;;;5037065;28;20112;-55
2022/01/17 10:09:31;;;;;;;14.85;9.18;;;9.10;78.00;;;;;;5036922;28;20155;-52
2022/01/17 10:12:17;;;;;;;16.02;8.93;;;9.10;78.40;;;;;;5037163;28;20105;-54
2022/01/17 10:14:59;;;;;;;14.40;8.52;;;9.10;78.00;;;;;;5036676;28;20038;-55
2022/01/17 10:17:56;;;;;;;14.98;8.93;;;9.20;78.10;;;;;;5036691;28;20477;-56
2022/01/17 10:20:22;;;;;;;15.10;8.32;;;9.20;78.40;;;;;;5036522;28;20049;-55
2022/01/17 10:23:17;;;;;;;14.63;8.73;;;9.20;78.50;;;;;;5036862;28;20055;-53
2022/01/17 10:26:04;;;;;;;15.70;8.98;;;9.30;78.20;;;;;;5036847;28;20033;-55
2022/01/17 10:36:50;;;;;;;15.20;8.23;;;9.30;77.50;;;;;;5058486;28;20067;-53
2022/01/17 10:39:17;;;;;;;16.55;8.65;;;9.30;77.80;;;;;;5047326;28;20033;-53
2022/01/17 10:41:42;;;;;;;14.70;8.90;;;9.30;77.60;;;;;;5040415;28;20030;-55
2022/01/17 10:44:08;;;;;;;14.93;9.35;;;9.40;77.40;;;;;;5040283;28;20049;-53
2022/01/17 10:46:35;;;;;;;15.85;9.15;;;9.40;77.80;;;;;;5040311;28;20465;-55
2022/01/17 10:49:03;;;;;;;14.43;8.32;;;9.40;77.90;;;;;;5040127;28;20535;-52
2022/01/17 10:51:33;;;;;;;25.77;8.65;;;9.40;78.40;;;;;;5039948;28;20033;-51
2022/01/17 10:54:09;;;;;;;12.93;8.60;;;9.50;77.60;;;;;;5040143;28;20104;-55
2022/01/17 10:56:51;;;;;;;15.52;9.77;;;9.50;78.20;;;;;;5040238;28;20029;-54
2022/01/17 10:59:36;;;;;;;14.82;9.13;;;9.60;77.20;;;;;;5040032;28;20025;-52
2022/01/17 11:02:01;;;;;;;;;;;9.60;77.20;;;;;;5040167;28;20037;-52
2022/01/17 11:04:38;;;;;;;17.60;10.32;;;9.60;77.80;;;;;;5040252;28;19911;-52
2022/01/17 11:07:06;;;;;;;17.70;10.25;;;9.70;77.40;;;;;;5039869;28;20116;-54
2022/01/17 11:09:40;;;;;;;16.65;10.02;;;9.70;77.80;;;;;;5039876;28;20021;-54
2022/01/17 11:12:11;;;;;;;19.80;14.23;;;9.70;77.70;;;;;;5039826;28;20029;-54
2022/01/17 11:14:37;;;;;;;16.38;10.30;;;9.80;78.30;;;;;;5039991;28;20053;-56
2022/01/17 11:17:32;;;;;;;15.48;9.35;;;9.80;77.60;;;;;;5039839;28;20022;-54
2022/01/17 11:20:06;;;;;;;18.88;11.13;;;9.80;77.40;;;;;;5039524;28;20025;-54
2022/01/17 11:22:35;;;;;;;17.73;12.88;;;9.90;77.20;;;;;;5039667;28;20036;-51
2022/01/17 11:25:04;;;;;;;13.80;8.05;;;9.90;77.10;;;;;;5039615;28;20477;-54
2022/01/17 11:27:30;;;;;;;11.55;7.68;;;9.90;77.40;;;;;;5039849;28;20108;-53
2022/01/17 11:29:57;;;;;;;13.52;9.27;;;9.90;77.60;;;;;;5039659;28;20025;-53
2022/01/17 11:32:24;;;;;;;14.73;9.98;;;10.00;77.40;;;;;;5039693;28;20507;-54
2022/01/17 11:34:52;;;;;;;13.43;10.60;;;10.10;77.50;;;;;;5039420;28;20384;-55
2022/01/17 11:37:22;;;;;;;10.85;7.88;;;10.20;77.40;;;;;;5039470;28;20029;-51
2022/01/17 11:39:52;;;;;;;12.18;8.10;;;10.20;77.40;;;;;;5038659;28;20530;-53
2022/01/17 11:42:30;;;;;;;13.57;7.40;;;10.30;77.00;;;;;;5039499;28;20076;-49
2022/01/17 11:44:57;;;;;;;12.85;6.97;;;10.50;76.90;;;;;;5039478;28;20064;-55
2022/01/17 11:48:02;;;;;;;10.35;7.20;;;10.60;77.10;;;;;;5039060;28;20470;-54
2022/01/17 11:50:31;;;;;;;13.02;10.60;;;10.70;76.80;;;;;;5037027;28;20025;-54
2022/01/17 11:53:11;;;;;;;12.13;6.32;;;10.90;77.00;;;;;;5034628;28;20032;-56
2022/01/17 11:55:42;;;;;;;11.90;6.50;;;11.10;76.20;;;;;;5039359;28;20101;-55
2022/01/17 11:58:25;;;;;;;10.27;6.70;;;11.20;75.70;;;;;;5038943;28;20025;-52
2022/01/17 12:00:57;;;;;;;10.02;6.78;;;12.00;78.20;;;;;;5037487;28;20029;-55
2022/01/17 12:03:31;;;;;;;10.80;6.60;;;13.60;78.80;;;;;;5038888;28;20037;-56
2022/01/17 12:06:02;;;;;;;10.82;7.65;;;15.30;77.20;;;;;;5038832;28;20064;-55
2022/01/17 12:08:30;;;;;;;10.70;7.80;;;16.80;71.70;;;;;;5038710;28;20501;-51
2022/01/17 12:11:06;;;;;;;9.57;5.78;;;18.10;69.60;;;;;;5038453;28;20064;-54
2022/01/17 12:13:36;;;;;;;17.67;16.05;;;19.10;67.80;;;;;;5038357;28;20406;-54
2022/01/17 12:16:14;;;;;;;10.60;8.73;;;19.40;63.50;;;;;;5038653;28;20022;-55
2022/01/17 12:19:05;;;;;;;8.05;6.13;;;19.90;68.20;;;;;;5038642;28;20104;-55
2022/01/17 12:21:40;;;;;;;8.02;5.65;;;19.90;64.00;;;;;;5038299;28;20045;-53
2022/01/17 12:24:18;;;;;;;7.07;5.30;;;19.50;61.90;;;;;;5038185;28;20112;-55
2022/01/17 12:26:53;;;;;;;7.20;4.85;;;19.20;62.80;;;;;;5038304;28;20147;-56
2022/01/17 12:29:47;;;;;;;8.00;5.50;;;18.90;63.00;;;;;;5036946;28;20040;-55
2022/01/17 12:32:24;;;;;;;6.87;4.60;;;19.30;63.60;;;;;;5038247;28;20084;-52
2022/01/17 12:34:53;;;;;;;9.65;5.65;;;20.30;64.40;;;;;;5038528;28;20030;-56
2022/01/17 12:37:33;;;;;;;7.97;5.53;;;21.30;62.50;;;;;;5038570;28;20034;-53
2022/01/17 12:40:40;;;;;;;7.97;5.32;;;21.90;62.70;;;;;;5038239;28;20040;-55
2022/01/17 12:43:10;;;;;;;6.93;4.78;;;22.00;57.10;;;;;;5038066;28;20072;-56
2022/01/17 12:45:54;;;;;;;6.63;4.90;;;21.30;60.20;;;;;;5038104;28;20026;-54
2022/01/17 12:48:23;;;;;;;7.40;4.38;;;20.80;60.80;;;;;;5038268;28;20028;-52
2022/01/17 12:50:51;;;;;;;7.03;4.18;;;20.80;61.70;;;;;;5036771;28;20018;-54
2022/01/17 12:53:19;;;;;;;6.60;4.80;;;21.10;61.50;;;;;;5038013;28;20104;-55
2022/01/17 12:55:50;;;;;;;7.50;4.78;;;21.50;60.10;;;;;;5037736;28;20029;-50
2022/01/17 12:58:26;;;;;;;6.80;4.15;;;22.10;58.60;;;;;;5036800;28;20497;-51
2022/01/17 13:00:53;;;;;;;5.90;4.05;;;22.90;59.00;;;;;;5037301;28;20060;-50
2022/01/17 13:03:20;;;;;;;5.78;3.97;;;23.10;52.30;;;;;;5037575;28;20060;-50
2022/01/17 13:05:47;;;;;;;6.60;3.85;;;23.40;51.00;;;;;;5037699;28;20037;-53
2022/01/17 13:08:13;;;;;;;6.85;4.30;;;23.60;53.50;;;;;;5037564;28;20040;-48
2022/01/17 13:10:39;;;;;;;6.55;3.45;;;23.50;50.90;;;;;;5037671;28;20026;-55
2022/01/17 13:13:06;;;;;;;4.88;3.13;;;23.80;55.20;;;;;;5037798;28;20025;-53
2022/01/17 13:15:32;;;;;;;5.78;3.42;;;24.20;55.50;;;;;;5037590;28;20124;-50